PADU

Details ICAO PADU (DUT)
Name UNALASKA
Region USA (Alaska)
Timezone America/Adak (UTC-10.0)
Plans Departing 21
Arriving 18
Stats Elevation 22 ft / 7 m (AMSL)
Location 53.899070° -166.545064°
Runways 1
Magnetic Variation 9.340° E
Sunrise 2016-12-10 19:15:36 UTC / 2016-12-10 09:15:36 Local
Sunset 2016-12-11 02:45:56 UTC / 2016-12-10 16:45:56 Local
Advertisement - Login to hide

Runways

ID Width Length Bearing (true) Bearing (mag) Surface Threshold Offset Overrun Length
12 100 ft / 30 m 3,895 ft / 1,187 m 135.64° 126.30° Asphalt 100 ft / 30 m 0 ft / 0 m
30 100 ft / 30 m 3,895 ft / 1,187 m 315.65° 306.31° Asphalt 101 ft / 31 m 0 ft / 0 m

Map

Weather

Temperature
Clouds and Precipitation
Forecast for 2016-12-10 12:00 UTC. Updated an hour ago
Winds

METAR

PADU 101156Z AUTO 10SM OVC034 01/M05 A3023 RMK AO2 SLP236 60000 T00111050 10022 20006 58003 FZRANO $

TAF

TAF PADU 101139Z 1012/1112 VRB05KT P6SM BKN035 FM110600 12007KT P6SM SCT025 BKN035 AMD LTD TO CLD VIS AND WX TIL 101600

Frequencies

Recorded 125.80 MHz AWOS 3
Unicom 122.60 MHz CTAF
Warning: Do not use this data for real-world aviation or navigation. No guarantee of current accuracy is given.